sensor_id;sensor_type;location;lat;lon;timestamp;P1;durP1;ratioP1;P2;durP2;ratioP2
42972;SDS011;28610;51.214;6.962;2022-09-30T00:01:12;12.33;;;7.93;;
42972;SDS011;28610;51.214;6.962;2022-09-30T00:03:58;12.07;;;8.30;;
42972;SDS011;28610;51.214;6.962;2022-09-30T00:06:44;14.07;;;8.30;;
42972;SDS011;28610;51.214;6.962;2022-09-30T00:09:30;13.43;;;7.87;;
42972;SDS011;28610;51.214;6.962;2022-09-30T00:12:15;13.97;;;7.50;;
42972;SDS011;28610;51.214;6.962;2022-09-30T00:15:02;14.20;;;8.73;;
42972;SDS011;28610;51.214;6.962;2022-09-30T00:17:48;14.43;;;8.77;;
42972;SDS011;28610;51.214;6.962;2022-09-30T00:20:34;14.90;;;8.10;;
42972;SDS011;28610;51.214;6.962;2022-09-30T00:23:19;12.70;;;8.13;;
42972;SDS011;28610;51.214;6.962;2022-09-30T00:26:06;13.17;;;8.30;;
42972;SDS011;28610;51.214;6.962;2022-09-30T00:28:53;14.60;;;8.87;;
42972;SDS011;28610;51.214;6.962;2022-09-30T00:31:41;14.73;;;8.10;;
42972;SDS011;28610;51.214;6.962;2022-09-30T00:34:26;10.40;;;7.37;;
42972;SDS011;28610;51.214;6.962;2022-09-30T00:37:12;12.60;;;8.13;;
42972;SDS011;28610;51.214;6.962;2022-09-30T00:39:59;13.77;;;7.93;;
42972;SDS011;28610;51.214;6.962;2022-09-30T00:42:45;14.00;;;8.30;;
42972;SDS011;28610;51.214;6.962;2022-09-30T00:45:30;13.07;;;7.73;;
42972;SDS011;28610;51.214;6.962;2022-09-30T00:48:18;13.37;;;7.73;;
42972;SDS011;28610;51.214;6.962;2022-09-30T00:51:08;14.30;;;8.13;;
42972;SDS011;28610;51.214;6.962;2022-09-30T00:53:55;15.47;;;8.30;;
42972;SDS011;28610;51.214;6.962;2022-09-30T00:56:45;12.90;;;8.33;;
42972;SDS011;28610;51.214;6.962;2022-09-30T00:59:35;16.37;;;8.47;;
42972;SDS011;28610;51.214;6.962;2022-09-30T01:02:23;13.37;;;8.83;;
42972;SDS011;28610;51.214;6.962;2022-09-30T01:05:10;14.67;;;8.50;;
42972;SDS011;28610;51.214;6.962;2022-09-30T01:07:56;13.73;;;8.70;;
42972;SDS011;28610;51.214;6.962;2022-09-30T01:10:43;13.60;;;8.37;;
42972;SDS011;28610;51.214;6.962;2022-09-30T01:13:29;15.73;;;8.40;;
42972;SDS011;28610;51.214;6.962;2022-09-30T01:16:20;17.07;;;8.10;;
42972;SDS011;28610;51.214;6.962;2022-09-30T01:19:25;14.10;;;8.17;;
42972;SDS011;28610;51.214;6.962;2022-09-30T01:22:25;11.77;;;7.90;;
42972;SDS011;28610;51.214;6.962;2022-09-30T01:25:28;14.37;;;8.33;;
42972;SDS011;28610;51.214;6.962;2022-09-30T01:28:49;12.50;;;7.63;;
42972;SDS011;28610;51.214;6.962;2022-09-30T01:31:58;11.30;;;7.60;;
42972;SDS011;28610;51.214;6.962;2022-09-30T01:34:51;13.27;;;7.80;;
42972;SDS011;28610;51.214;6.962;2022-09-30T01:37:49;14.60;;;8.20;;
42972;SDS011;28610;51.214;6.962;2022-09-30T01:40:45;12.57;;;8.10;;
42972;SDS011;28610;51.214;6.962;2022-09-30T01:43:38;12.53;;;8.03;;
42972;SDS011;28610;51.214;6.962;2022-09-30T01:46:29;13.87;;;8.63;;
42972;SDS011;28610;51.214;6.962;2022-09-30T01:49:22;11.57;;;8.27;;
42972;SDS011;28610;51.214;6.962;2022-09-30T01:52:15;11.57;;;7.87;;
42972;SDS011;28610;51.214;6.962;2022-09-30T01:55:06;12.80;;;7.87;;
42972;SDS011;28610;51.214;6.962;2022-09-30T01:57:58;12.83;;;8.40;;
42972;SDS011;28610;51.214;6.962;2022-09-30T02:00:48;13.63;;;8.63;;
42972;SDS011;28610;51.214;6.962;2022-09-30T02:03:40;11.13;;;8.27;;
42972;SDS011;28610;51.214;6.962;2022-09-30T02:06:32;13.47;;;8.07;;
42972;SDS011;28610;51.214;6.962;2022-09-30T02:09:23;19.23;;;10.17;;
42972;SDS011;28610;51.214;6.962;2022-09-30T02:12:13;10.90;;;7.50;;
42972;SDS011;28610;51.214;6.962;2022-09-30T02:15:04;9.77;;;7.10;;
42972;SDS011;28610;51.214;6.962;2022-09-30T02:17:54;11.47;;;7.70;;
42972;SDS011;28610;51.214;6.962;2022-09-30T02:20:43;11.17;;;7.37;;
42972;SDS011;28610;51.214;6.962;2022-09-30T02:23:32;11.93;;;7.03;;
42972;SDS011;28610;51.214;6.962;2022-09-30T02:26:22;10.93;;;7.70;;
42972;SDS011;28610;51.214;6.962;2022-09-30T02:29:11;13.60;;;7.80;;
42972;SDS011;28610;51.214;6.962;2022-09-30T02:32:02;11.80;;;7.50;;
42972;SDS011;28610;51.214;6.962;2022-09-30T02:34:51;13.10;;;7.73;;
42972;SDS011;28610;51.214;6.962;2022-09-30T02:37:42;11.77;;;8.00;;
42972;SDS011;28610;51.214;6.962;2022-09-30T02:40:32;12.13;;;8.20;;
42972;SDS011;28610;51.214;6.962;2022-09-30T02:43:22;14.43;;;8.07;;
42972;SDS011;28610;51.214;6.962;2022-09-30T02:46:12;12.43;;;7.93;;
42972;SDS011;28610;51.214;6.962;2022-09-30T02:49:07;14.33;;;8.67;;
42972;SDS011;28610;51.214;6.962;2022-09-30T02:52:04;18.60;;;8.43;;
42972;SDS011;28610;51.214;6.962;2022-09-30T02:54:59;12.87;;;8.93;;
42972;SDS011;28610;51.214;6.962;2022-09-30T02:57:58;13.70;;;8.23;;
42972;SDS011;28610;51.214;6.962;2022-09-30T03:00:48;12.77;;;8.53;;
42972;SDS011;28610;51.214;6.962;2022-09-30T03:03:35;14.47;;;7.90;;
42972;SDS011;28610;51.214;6.962;2022-09-30T03:06:23;13.13;;;8.13;;
42972;SDS011;28610;51.214;6.962;2022-09-30T03:09:09;10.97;;;7.47;;
42972;SDS011;28610;51.214;6.962;2022-09-30T03:11:57;11.67;;;7.70;;
42972;SDS011;28610;51.214;6.962;2022-09-30T03:18:05;13.17;;;7.60;;
42972;SDS011;28610;51.214;6.962;2022-09-30T03:21:13;10.37;;;7.37;;
42972;SDS011;28610;51.214;6.962;2022-09-30T03:24:29;12.13;;;6.60;;
42972;SDS011;28610;51.214;6.962;2022-09-30T03:27:33;10.50;;;7.27;;
42972;SDS011;28610;51.214;6.962;2022-09-30T03:30:27;42.33;;;16.67;;
42972;SDS011;28610;51.214;6.962;2022-09-30T03:33:16;17.33;;;9.00;;
42972;SDS011;28610;51.214;6.962;2022-09-30T03:36:11;18.20;;;8.23;;
42972;SDS011;28610;51.214;6.962;2022-09-30T03:39:00;11.90;;;7.70;;
42972;SDS011;28610;51.214;6.962;2022-09-30T03:41:53;11.40;;;8.17;;
42972;SDS011;28610;51.214;6.962;2022-09-30T03:44:43;15.47;;;7.70;;
42972;SDS011;28610;51.214;6.962;2022-09-30T03:47:39;14.73;;;8.90;;
42972;SDS011;28610;51.214;6.962;2022-09-30T03:50:27;12.07;;;7.87;;
42972;SDS011;28610;51.214;6.962;2022-09-30T03:53:15;13.77;;;8.03;;
42972;SDS011;28610;51.214;6.962;2022-09-30T03:56:01;16.10;;;8.90;;
42972;SDS011;28610;51.214;6.962;2022-09-30T03:58:46;14.17;;;8.80;;
42972;SDS011;28610;51.214;6.962;2022-09-30T04:01:32;16.30;;;8.80;;
42972;SDS011;28610;51.214;6.962;2022-09-30T04:04:19;14.53;;;9.07;;
42972;SDS011;28610;51.214;6.962;2022-09-30T04:07:04;14.17;;;9.03;;
42972;SDS011;28610;51.214;6.962;2022-09-30T04:09:50;13.33;;;8.90;;
42972;SDS011;28610;51.214;6.962;2022-09-30T04:12:35;13.67;;;9.00;;
42972;SDS011;28610;51.214;6.962;2022-09-30T04:15:21;13.53;;;9.07;;
42972;SDS011;28610;51.214;6.962;2022-09-30T04:18:06;13.33;;;8.77;;
42972;SDS011;28610;51.214;6.962;2022-09-30T04:20:53;14.30;;;8.70;;
42972;SDS011;28610;51.214;6.962;2022-09-30T04:23:39;18.27;;;10.10;;
42972;SDS011;28610;51.214;6.962;2022-09-30T04:26:26;19.80;;;10.30;;
42972;SDS011;28610;51.214;6.962;2022-09-30T04:29:11;15.03;;;9.60;;
42972;SDS011;28610;51.214;6.962;2022-09-30T04:31:56;15.10;;;9.60;;
42972;SDS011;28610;51.214;6.962;2022-09-30T04:34:42;14.93;;;10.00;;
42972;SDS011;28610;51.214;6.962;2022-09-30T04:37:29;16.43;;;9.33;;
42972;SDS011;28610;51.214;6.962;2022-09-30T04:40:15;14.83;;;10.17;;
42972;SDS011;28610;51.214;6.962;2022-09-30T04:43:00;16.80;;;10.73;;
42972;SDS011;28610;51.214;6.962;2022-09-30T04:45:46;17.93;;;9.93;;
42972;SDS011;28610;51.214;6.962;2022-09-30T04:48:32;15.17;;;9.33;;
42972;SDS011;28610;51.214;6.962;2022-09-30T04:51:18;17.43;;;9.97;;
42972;SDS011;28610;51.214;6.962;2022-09-30T04:54:05;13.87;;;9.20;;
42972;SDS011;28610;51.214;6.962;2022-09-30T04:56:51;17.30;;;10.30;;
42972;SDS011;28610;51.214;6.962;2022-09-30T04:59:36;17.00;;;10.00;;
42972;SDS011;28610;51.214;6.962;2022-09-30T05:02:21;19.90;;;10.50;;
42972;SDS011;28610;51.214;6.962;2022-09-30T05:05:07;15.33;;;10.20;;
42972;SDS011;28610;51.214;6.962;2022-09-30T05:07:54;16.20;;;10.57;;
42972;SDS011;28610;51.214;6.962;2022-09-30T05:10:51;15.10;;;10.10;;
42972;SDS011;28610;51.214;6.962;2022-09-30T05:13:38;19.27;;;11.73;;
42972;SDS011;28610;51.214;6.962;2022-09-30T05:16:23;24.43;;;14.03;;
42972;SDS011;28610;51.214;6.962;2022-09-30T05:19:10;18.70;;;12.80;;
42972;SDS011;28610;51.214;6.962;2022-09-30T05:21:55;20.50;;;12.30;;
42972;SDS011;28610;51.214;6.962;2022-09-30T05:24:41;20.10;;;12.50;;
42972;SDS011;28610;51.214;6.962;2022-09-30T05:27:28;18.37;;;11.03;;
42972;SDS011;28610;51.214;6.962;2022-09-30T05:30:13;22.40;;;11.37;;
42972;SDS011;28610;51.214;6.962;2022-09-30T05:32:59;21.33;;;13.60;;
42972;SDS011;28610;51.214;6.962;2022-09-30T05:35:44;21.37;;;12.57;;
42972;SDS011;28610;51.214;6.962;2022-09-30T05:38:30;19.40;;;12.30;;
42972;SDS011;28610;51.214;6.962;2022-09-30T05:41:15;20.30;;;12.13;;
42972;SDS011;28610;51.214;6.962;2022-09-30T05:44:04;19.20;;;11.50;;
42972;SDS011;28610;51.214;6.962;2022-09-30T05:46:52;17.23;;;10.67;;
42972;SDS011;28610;51.214;6.962;2022-09-30T05:49:37;16.13;;;10.90;;
42972;SDS011;28610;51.214;6.962;2022-09-30T05:52:24;18.03;;;11.17;;
42972;SDS011;28610;51.214;6.962;2022-09-30T05:55:10;18.03;;;11.20;;
42972;SDS011;28610;51.214;6.962;2022-09-30T05:57:56;21.50;;;11.40;;
42972;SDS011;28610;51.214;6.962;2022-09-30T06:00:43;19.10;;;11.30;;
42972;SDS011;28610;51.214;6.962;2022-09-30T06:03:30;20.87;;;11.30;;
42972;SDS011;28610;51.214;6.962;2022-09-30T06:06:15;17.58;;;12.60;;
42972;SDS011;28610;51.214;6.962;2022-09-30T06:09:01;22.90;;;11.70;;
42972;SDS011;28610;51.214;6.962;2022-09-30T06:11:47;19.03;;;11.63;;
42972;SDS011;28610;51.214;6.962;2022-09-30T06:14:32;20.63;;;11.43;;
42972;SDS011;28610;51.214;6.962;2022-09-30T06:17:19;17.03;;;11.53;;
42972;SDS011;28610;51.214;6.962;2022-09-30T06:20:05;19.63;;;12.10;;
42972;SDS011;28610;51.214;6.962;2022-09-30T06:22:51;18.47;;;11.17;;
42972;SDS011;28610;51.214;6.962;2022-09-30T06:25:37;19.87;;;11.57;;
42972;SDS011;28610;51.214;6.962;2022-09-30T06:28:22;16.93;;;11.77;;
42972;SDS011;28610;51.214;6.962;2022-09-30T06:31:10;18.10;;;11.70;;
42972;SDS011;28610;51.214;6.962;2022-09-30T06:33:56;18.63;;;10.93;;
42972;SDS011;28610;51.214;6.962;2022-09-30T06:36:42;19.30;;;10.70;;
42972;SDS011;28610;51.214;6.962;2022-09-30T06:39:27;19.73;;;10.90;;
42972;SDS011;28610;51.214;6.962;2022-09-30T06:42:13;15.30;;;9.87;;
42972;SDS011;28610;51.214;6.962;2022-09-30T06:44:58;15.87;;;9.43;;
42972;SDS011;28610;51.214;6.962;2022-09-30T06:47:44;13.43;;;8.70;;
42972;SDS011;28610;51.214;6.962;2022-09-30T06:50:32;15.87;;;8.63;;
42972;SDS011;28610;51.214;6.962;2022-09-30T06:53:18;14.33;;;8.90;;
42972;SDS011;28610;51.214;6.962;2022-09-30T06:56:04;12.63;;;8.87;;
42972;SDS011;28610;51.214;6.962;2022-09-30T06:58:50;15.50;;;8.57;;
42972;SDS011;28610;51.214;6.962;2022-09-30T07:01:35;17.60;;;8.63;;
42972;SDS011;28610;51.214;6.962;2022-09-30T07:04:21;13.27;;;8.80;;
42972;SDS011;28610;51.214;6.962;2022-09-30T07:07:08;13.30;;;8.00;;
42972;SDS011;28610;51.214;6.962;2022-09-30T07:09:54;14.13;;;8.27;;
42972;SDS011;28610;51.214;6.962;2022-09-30T07:12:40;12.00;;;8.23;;
42972;SDS011;28610;51.214;6.962;2022-09-30T07:15:25;15.17;;;9.20;;
42972;SDS011;28610;51.214;6.962;2022-09-30T07:18:11;14.27;;;8.30;;
42972;SDS011;28610;51.214;6.962;2022-09-30T07:20:56;14.63;;;8.43;;
42972;SDS011;28610;51.214;6.962;2022-09-30T07:23:43;17.47;;;11.13;;
42972;SDS011;28610;51.214;6.962;2022-09-30T07:26:32;15.23;;;9.03;;
42972;SDS011;28610;51.214;6.962;2022-09-30T07:29:25;16.43;;;10.20;;
42972;SDS011;28610;51.214;6.962;2022-09-30T07:32:11;30.60;;;23.80;;
42972;SDS011;28610;51.214;6.962;2022-09-30T07:34:58;16.30;;;9.80;;
42972;SDS011;28610;51.214;6.962;2022-09-30T07:37:43;12.60;;;9.33;;
42972;SDS011;28610;51.214;6.962;2022-09-30T07:40:30;13.00;;;9.00;;
42972;SDS011;28610;51.214;6.962;2022-09-30T07:43:15;18.37;;;11.47;;
42972;SDS011;28610;51.214;6.962;2022-09-30T07:46:02;15.20;;;9.53;;
42972;SDS011;28610;51.214;6.962;2022-09-30T07:48:47;15.90;;;9.27;;
42972;SDS011;28610;51.214;6.962;2022-09-30T07:51:35;12.00;;;8.73;;
42972;SDS011;28610;51.214;6.962;2022-09-30T07:54:23;15.23;;;11.00;;
42972;SDS011;28610;51.214;6.962;2022-09-30T07:57:11;14.57;;;9.30;;
42972;SDS011;28610;51.214;6.962;2022-09-30T07:59:56;14.60;;;8.67;;
42972;SDS011;28610;51.214;6.962;2022-09-30T08:02:41;15.73;;;8.60;;
42972;SDS011;28610;51.214;6.962;2022-09-30T08:05:27;14.60;;;8.77;;
42972;SDS011;28610;51.214;6.962;2022-09-30T08:08:13;14.03;;;8.47;;
42972;SDS011;28610;51.214;6.962;2022-09-30T08:10:59;11.20;;;7.87;;
42972;SDS011;28610;51.214;6.962;2022-09-30T08:13:50;13.07;;;8.43;;
42972;SDS011;28610;51.214;6.962;2022-09-30T08:16:35;12.87;;;7.90;;
42972;SDS011;28610;51.214;6.962;2022-09-30T08:19:21;14.20;;;8.30;;
42972;SDS011;28610;51.214;6.962;2022-09-30T08:22:08;12.33;;;8.50;;
42972;SDS011;28610;51.214;6.962;2022-09-30T08:24:55;12.93;;;8.23;;
42972;SDS011;28610;51.214;6.962;2022-09-30T08:27:41;15.70;;;8.47;;
42972;SDS011;28610;51.214;6.962;2022-09-30T08:30:27;12.03;;;7.53;;
42972;SDS011;28610;51.214;6.962;2022-09-30T08:33:13;15.80;;;8.13;;
42972;SDS011;28610;51.214;6.962;2022-09-30T08:36:02;13.20;;;8.00;;
42972;SDS011;28610;51.214;6.962;2022-09-30T08:38:48;14.23;;;8.10;;
42972;SDS011;28610;51.214;6.962;2022-09-30T08:41:44;13.03;;;7.37;;
42972;SDS011;28610;51.214;6.962;2022-09-30T08:44:40;13.13;;;7.43;;
42972;SDS011;28610;51.214;6.962;2022-09-30T08:47:32;15.40;;;8.13;;
42972;SDS011;28610;51.214;6.962;2022-09-30T08:50:28;15.17;;;8.53;;
42972;SDS011;28610;51.214;6.962;2022-09-30T08:53:20;17.70;;;8.30;;
42972;SDS011;28610;51.214;6.962;2022-09-30T08:56:11;14.67;;;8.93;;
42972;SDS011;28610;51.214;6.962;2022-09-30T08:59:04;13.53;;;8.73;;
42972;SDS011;28610;51.214;6.962;2022-09-30T09:01:57;17.03;;;9.17;;
42972;SDS011;28610;51.214;6.962;2022-09-30T09:04:47;17.37;;;8.97;;
42972;SDS011;28610;51.214;6.962;2022-09-30T09:07:37;15.83;;;8.77;;
42972;SDS011;28610;51.214;6.962;2022-09-30T09:10:35;14.67;;;8.37;;
42972;SDS011;28610;51.214;6.962;2022-09-30T09:13:33;16.87;;;8.03;;
42972;SDS011;28610;51.214;6.962;2022-09-30T09:16:26;16.33;;;8.30;;
42972;SDS011;28610;51.214;6.962;2022-09-30T09:19:18;11.10;;;7.07;;
42972;SDS011;28610;51.214;6.962;2022-09-30T09:22:10;16.77;;;7.77;;
42972;SDS011;28610;51.214;6.962;2022-09-30T09:24:55;13.40;;;7.73;;
42972;SDS011;28610;51.214;6.962;2022-09-30T09:27:44;14.80;;;8.00;;
42972;SDS011;28610;51.214;6.962;2022-09-30T09:30:38;12.30;;;7.60;;
42972;SDS011;28610;51.214;6.962;2022-09-30T09:33:28;15.07;;;8.37;;
42972;SDS011;28610;51.214;6.962;2022-09-30T09:36:18;18.20;;;10.17;;
42972;SDS011;28610;51.214;6.962;2022-09-30T09:39:15;16.33;;;10.83;;
42972;SDS011;28610;51.214;6.962;2022-09-30T09:42:16;16.83;;;9.20;;
42972;SDS011;28610;51.214;6.962;2022-09-30T09:45:13;18.77;;;9.40;;
42972;SDS011;28610;51.214;6.962;2022-09-30T09:48:07;15.13;;;9.03;;
42972;SDS011;28610;51.214;6.962;2022-09-30T09:50:57;16.03;;;8.63;;
42972;SDS011;28610;51.214;6.962;2022-09-30T09:53:47;16.00;;;9.40;;
42972;SDS011;28610;51.214;6.962;2022-09-30T09:56:36;13.33;;;8.23;;
42972;SDS011;28610;51.214;6.962;2022-09-30T09:59:21;16.13;;;9.10;;
42972;SDS011;28610;51.214;6.962;2022-09-30T10:02:20;14.70;;;8.60;;
42972;SDS011;28610;51.214;6.962;2022-09-30T10:05:15;15.20;;;8.30;;
42972;SDS011;28610;51.214;6.962;2022-09-30T10:08:10;14.93;;;8.33;;
42972;SDS011;28610;51.214;6.962;2022-09-30T10:10:58;13.73;;;7.90;;
42972;SDS011;28610;51.214;6.962;2022-09-30T10:13:47;17.10;;;10.40;;
42972;SDS011;28610;51.214;6.962;2022-09-30T10:16:34;15.60;;;7.80;;
42972;SDS011;28610;51.214;6.962;2022-09-30T10:19:21;16.77;;;8.37;;
42972;SDS011;28610;51.214;6.962;2022-09-30T10:22:16;11.83;;;7.27;;
42972;SDS011;28610;51.214;6.962;2022-09-30T10:25:08;15.23;;;8.03;;
42972;SDS011;28610;51.214;6.962;2022-09-30T10:28:18;14.13;;;7.00;;
42972;SDS011;28610;51.214;6.962;2022-09-30T10:31:09;14.10;;;7.37;;
42972;SDS011;28610;51.214;6.962;2022-09-30T10:34:08;12.23;;;6.60;;
42972;SDS011;28610;51.214;6.962;2022-09-30T10:36:56;15.53;;;6.90;;
42972;SDS011;28610;51.214;6.962;2022-09-30T10:39:48;12.90;;;7.07;;
42972;SDS011;28610;51.214;6.962;2022-09-30T10:42:39;12.17;;;6.90;;
42972;SDS011;28610;51.214;6.962;2022-09-30T10:45:30;11.97;;;6.80;;
42972;SDS011;28610;51.214;6.962;2022-09-30T10:48:21;14.43;;;6.70;;
42972;SDS011;28610;51.214;6.962;2022-09-30T10:51:16;13.17;;;6.30;;
42972;SDS011;28610;51.214;6.962;2022-09-30T10:54:10;14.20;;;6.97;;
42972;SDS011;28610;51.214;6.962;2022-09-30T10:57:20;12.20;;;6.38;;
42972;SDS011;28610;51.214;6.962;2022-09-30T11:00:10;14.47;;;5.97;;
42972;SDS011;28610;51.214;6.962;2022-09-30T11:03:01;12.70;;;7.33;;
42972;SDS011;28610;51.214;6.962;2022-09-30T11:05:51;13.10;;;6.10;;
42972;SDS011;28610;51.214;6.962;2022-09-30T11:08:38;11.33;;;6.17;;
42972;SDS011;28610;51.214;6.962;2022-09-30T11:11:31;13.17;;;6.20;;
42972;SDS011;28610;51.214;6.962;2022-09-30T11:14:26;15.00;;;6.37;;
42972;SDS011;28610;51.214;6.962;2022-09-30T11:17:22;12.80;;;6.47;;
42972;SDS011;28610;51.214;6.962;2022-09-30T11:20:14;14.53;;;6.97;;
42972;SDS011;28610;51.214;6.962;2022-09-30T11:23:04;13.13;;;7.27;;
42972;SDS011;28610;51.214;6.962;2022-09-30T11:25:59;17.50;;;8.07;;
42972;SDS011;28610;51.214;6.962;2022-09-30T11:28:57;18.83;;;8.53;;
42972;SDS011;28610;51.214;6.962;2022-09-30T11:31:54;16.57;;;7.27;;
42972;SDS011;28610;51.214;6.962;2022-09-30T11:34:48;13.97;;;6.87;;
42972;SDS011;28610;51.214;6.962;2022-09-30T11:37:47;12.40;;;6.17;;
42972;SDS011;28610;51.214;6.962;2022-09-30T11:40:44;13.40;;;6.60;;
42972;SDS011;28610;51.214;6.962;2022-09-30T11:43:40;19.30;;;8.67;;
42972;SDS011;28610;51.214;6.962;2022-09-30T11:46:47;16.37;;;7.47;;
42972;SDS011;28610;51.214;6.962;2022-09-30T11:49:49;13.53;;;7.07;;
42972;SDS011;28610;51.214;6.962;2022-09-30T11:53:02;16.33;;;6.77;;
42972;SDS011;28610;51.214;6.962;2022-09-30T11:56:01;11.03;;;6.47;;
42972;SDS011;28610;51.214;6.962;2022-09-30T11:58:57;10.57;;;5.60;;
42972;SDS011;28610;51.214;6.962;2022-09-30T12:01:48;10.30;;;5.63;;
42972;SDS011;28610;51.214;6.962;2022-09-30T12:04:36;12.73;;;6.73;;
42972;SDS011;28610;51.214;6.962;2022-09-30T12:07:25;13.53;;;6.13;;
42972;SDS011;28610;51.214;6.962;2022-09-30T12:10:21;9.33;;;5.70;;
42972;SDS011;28610;51.214;6.962;2022-09-30T12:13:09;11.37;;;5.30;;
42972;SDS011;28610;51.214;6.962;2022-09-30T12:15:57;10.47;;;5.10;;
42972;SDS011;28610;51.214;6.962;2022-09-30T12:18:50;11.63;;;5.33;;
42972;SDS011;28610;51.214;6.962;2022-09-30T12:21:41;13.40;;;5.77;;
42972;SDS011;28610;51.214;6.962;2022-09-30T12:24:34;9.50;;;4.93;;
42972;SDS011;28610;51.214;6.962;2022-09-30T12:27:22;13.37;;;5.47;;
42972;SDS011;28610;51.214;6.962;2022-09-30T12:30:12;16.53;;;6.43;;
42972;SDS011;28610;51.214;6.962;2022-09-30T12:45:58;14.27;;;6.43;;
42972;SDS011;28610;51.214;6.962;2022-09-30T12:48:57;15.20;;;6.43;;
42972;SDS011;28610;51.214;6.962;2022-09-30T12:51:47;10.47;;;5.60;;
42972;SDS011;28610;51.214;6.962;2022-09-30T12:54:38;11.27;;;6.10;;
42972;SDS011;28610;51.214;6.962;2022-09-30T12:57:29;9.47;;;4.90;;
42972;SDS011;28610;51.214;6.962;2022-09-30T13:00:17;10.10;;;5.13;;
42972;SDS011;28610;51.214;6.962;2022-09-30T13:03:05;12.83;;;4.83;;
42972;SDS011;28610;51.214;6.962;2022-09-30T13:06:00;8.20;;;4.78;;
42972;SDS011;28610;51.214;6.962;2022-09-30T13:09:05;11.90;;;5.57;;
42972;SDS011;28610;51.214;6.962;2022-09-30T13:12:15;9.27;;;4.67;;
42972;SDS011;28610;51.214;6.962;2022-09-30T13:15:25;12.20;;;4.50;;
42972;SDS011;28610;51.214;6.962;2022-09-30T13:21:42;11.40;;;4.50;;
42972;SDS011;28610;51.214;6.962;2022-09-30T13:27:47;9.87;;;4.10;;
42972;SDS011;28610;51.214;6.962;2022-09-30T13:30:38;10.30;;;4.50;;
42972;SDS011;28610;51.214;6.962;2022-09-30T13:33:28;6.80;;;4.18;;
42972;SDS011;28610;51.214;6.962;2022-09-30T13:36:26;9.40;;;4.23;;
42972;SDS011;28610;51.214;6.962;2022-09-30T13:39:18;7.18;;;3.75;;
42972;SDS011;28610;51.214;6.962;2022-09-30T13:42:06;7.63;;;3.70;;
42972;SDS011;28610;51.214;6.962;2022-09-30T13:44:58;6.97;;;3.50;;
42972;SDS011;28610;51.214;6.962;2022-09-30T13:47:48;6.67;;;3.20;;
42972;SDS011;28610;51.214;6.962;2022-09-30T13:50:42;5.57;;;3.33;;
42972;SDS011;28610;51.214;6.962;2022-09-30T13:53:31;7.73;;;3.60;;
42972;SDS011;28610;51.214;6.962;2022-09-30T13:56:21;4.93;;;2.70;;
42972;SDS011;28610;51.214;6.962;2022-09-30T13:59:19;6.67;;;3.03;;
42972;SDS011;28610;51.214;6.962;2022-09-30T14:02:20;7.47;;;3.50;;
42972;SDS011;28610;51.214;6.962;2022-09-30T14:12:01;7.32;;;3.33;;
42972;SDS011;28610;51.214;6.962;2022-09-30T14:15:02;5.97;;;2.88;;
42972;SDS011;28610;51.214;6.962;2022-09-30T14:18:20;5.57;;;2.80;;
42972;SDS011;28610;51.214;6.962;2022-09-30T14:21:23;4.67;;;2.57;;
42972;SDS011;28610;51.214;6.962;2022-09-30T14:24:20;4.43;;;2.70;;
42972;SDS011;28610;51.214;6.962;2022-09-30T14:27:12;4.38;;;2.53;;
42972;SDS011;28610;51.214;6.962;2022-09-30T14:30:23;6.72;;;2.50;;
42972;SDS011;28610;51.214;6.962;2022-09-30T14:33:10;4.40;;;2.87;;
42972;SDS011;28610;51.214;6.962;2022-09-30T14:36:05;6.60;;;2.90;;
42972;SDS011;28610;51.214;6.962;2022-09-30T14:38:57;6.47;;;2.85;;
42972;SDS011;28610;51.214;6.962;2022-09-30T14:41:46;6.23;;;2.53;;
42972;SDS011;28610;51.214;6.962;2022-09-30T14:44:35;5.63;;;2.73;;
42972;SDS011;28610;51.214;6.962;2022-09-30T14:47:22;4.80;;;2.40;;
42972;SDS011;28610;51.214;6.962;2022-09-30T14:50:09;4.25;;;2.30;;
42972;SDS011;28610;51.214;6.962;2022-09-30T14:52:57;5.40;;;2.47;;
42972;SDS011;28610;51.214;6.962;2022-09-30T14:55:47;5.88;;;2.42;;
42972;SDS011;28610;51.214;6.962;2022-09-30T14:58:37;5.00;;;2.30;;
42972;SDS011;28610;51.214;6.962;2022-09-30T15:01:26;3.72;;;2.42;;
42972;SDS011;28610;51.214;6.962;2022-09-30T15:04:15;3.35;;;2.40;;
42972;SDS011;28610;51.214;6.962;2022-09-30T15:07:03;2.95;;;2.08;;
42972;SDS011;28610;51.214;6.962;2022-09-30T15:09:53;5.13;;;2.57;;
42972;SDS011;28610;51.214;6.962;2022-09-30T15:12:46;5.53;;;2.72;;
42972;SDS011;28610;51.214;6.962;2022-09-30T15:15:34;4.68;;;2.22;;
42972;SDS011;28610;51.214;6.962;2022-09-30T15:18:31;4.70;;;2.40;;
42972;SDS011;28610;51.214;6.962;2022-09-30T15:21:19;3.90;;;2.40;;
42972;SDS011;28610;51.214;6.962;2022-09-30T15:24:06;6.75;;;2.65;;
42972;SDS011;28610;51.214;6.962;2022-09-30T15:26:55;5.75;;;2.20;;
42972;SDS011;28610;51.214;6.962;2022-09-30T15:29:53;6.37;;;2.43;;
42972;SDS011;28610;51.214;6.962;2022-09-30T15:32:39;3.88;;;2.70;;
42972;SDS011;28610;51.214;6.962;2022-09-30T15:35:25;3.40;;;2.45;;
42972;SDS011;28610;51.214;6.962;2022-09-30T15:38:14;5.37;;;2.60;;
42972;SDS011;28610;51.214;6.962;2022-09-30T15:41:04;5.13;;;2.30;;
42972;SDS011;28610;51.214;6.962;2022-09-30T15:43:51;4.53;;;2.60;;
42972;SDS011;28610;51.214;6.962;2022-09-30T15:46:38;3.72;;;2.85;;
42972;SDS011;28610;51.214;6.962;2022-09-30T15:49:31;4.23;;;2.53;;
42972;SDS011;28610;51.214;6.962;2022-09-30T15:52:28;5.57;;;2.77;;
42972;SDS011;28610;51.214;6.962;2022-09-30T15:55:33;4.30;;;2.93;;
42972;SDS011;28610;51.214;6.962;2022-09-30T15:58:34;4.77;;;3.13;;
42972;SDS011;28610;51.214;6.962;2022-09-30T16:01:21;6.47;;;3.27;;
42972;SDS011;28610;51.214;6.962;2022-09-30T16:04:10;7.80;;;2.93;;
42972;SDS011;28610;51.214;6.962;2022-09-30T16:07:07;9.60;;;3.87;;
42972;SDS011;28610;51.214;6.962;2022-09-30T16:09:54;7.80;;;3.43;;
42972;SDS011;28610;51.214;6.962;2022-09-30T16:12:42;6.97;;;3.87;;
42972;SDS011;28610;51.214;6.962;2022-09-30T16:15:34;6.90;;;3.63;;
42972;SDS011;28610;51.214;6.962;2022-09-30T16:18:24;7.43;;;4.30;;
42972;SDS011;28610;51.214;6.962;2022-09-30T16:21:26;10.10;;;3.90;;
42972;SDS011;28610;51.214;6.962;2022-09-30T16:27:29;7.43;;;4.00;;
42972;SDS011;28610;51.214;6.962;2022-09-30T16:30:16;11.53;;;4.63;;
42972;SDS011;28610;51.214;6.962;2022-09-30T16:33:04;8.03;;;4.07;;
42972;SDS011;28610;51.214;6.962;2022-09-30T16:35:50;9.37;;;4.50;;
42972;SDS011;28610;51.214;6.962;2022-09-30T16:38:37;9.53;;;4.33;;
42972;SDS011;28610;51.214;6.962;2022-09-30T16:41:23;7.27;;;4.13;;
42972;SDS011;28610;51.214;6.962;2022-09-30T16:44:09;8.77;;;3.77;;
42972;SDS011;28610;51.214;6.962;2022-09-30T16:46:54;6.33;;;3.50;;
42972;SDS011;28610;51.214;6.962;2022-09-30T16:49:40;8.97;;;4.00;;
42972;SDS011;28610;51.214;6.962;2022-09-30T16:52:26;5.43;;;3.30;;
42972;SDS011;28610;51.214;6.962;2022-09-30T16:55:13;5.33;;;3.17;;
42972;SDS011;28610;51.214;6.962;2022-09-30T16:58:02;8.37;;;3.50;;
42972;SDS011;28610;51.214;6.962;2022-09-30T17:00:47;6.47;;;3.20;;
42972;SDS011;28610;51.214;6.962;2022-09-30T17:03:33;5.27;;;3.30;;
42972;SDS011;28610;51.214;6.962;2022-09-30T17:06:19;7.60;;;3.47;;
42972;SDS011;28610;51.214;6.962;2022-09-30T17:09:09;4.40;;;3.00;;
42972;SDS011;28610;51.214;6.962;2022-09-30T17:11:59;5.87;;;3.20;;
42972;SDS011;28610;51.214;6.962;2022-09-30T17:14:44;6.50;;;3.67;;
42972;SDS011;28610;51.214;6.962;2022-09-30T17:17:30;8.53;;;3.90;;
42972;SDS011;28610;51.214;6.962;2022-09-30T17:20:15;4.93;;;3.60;;
42972;SDS011;28610;51.214;6.962;2022-09-30T17:23:01;6.53;;;3.70;;
42972;SDS011;28610;51.214;6.962;2022-09-30T17:25:47;6.90;;;3.27;;